sensor_id;sensor_type;location;lat;lon;timestamp;pressure;altitude;pressure_sealevel;temperature;humidity
57250;BME280;43102;52.014;-0.680;2023-01-16T00:00:00;98078;;;4.64;78.73
57250;BME280;43102;52.014;-0.680;2023-01-16T00:01:00;98078;;;4.64;78.73
57250;BME280;43102;52.014;-0.680;2023-01-16T00:02:00;98078;;;4.64;78.73
57250;BME280;43102;52.014;-0.680;2023-01-16T00:03:00;98078;;;4.64;78.73
57250;BME280;43102;52.014;-0.680;2023-01-16T00:04:00;98056;;;4.60;78.71
57250;BME280;43102;52.014;-0.680;2023-01-16T00:05:00;98056;;;4.60;78.71
57250;BME280;43102;52.014;-0.680;2023-01-16T00:06:00;98056;;;4.60;78.71
57250;BME280;43102;52.014;-0.680;2023-01-16T00:07:00;98056;;;4.60;78.71
57250;BME280;43102;52.014;-0.680;2023-01-16T00:08:00;98056;;;4.60;78.71
57250;BME280;43102;52.014;-0.680;2023-01-16T00:09:00;98053;;;4.50;78.69
57250;BME280;43102;52.014;-0.680;2023-01-16T00:10:00;98053;;;4.50;78.69
57250;BME280;43102;52.014;-0.680;2023-01-16T00:11:00;98053;;;4.50;78.69
57250;BME280;43102;52.014;-0.680;2023-01-16T00:12:00;98053;;;4.50;78.69
57250;BME280;43102;52.014;-0.680;2023-01-16T00:13:00;98053;;;4.50;78.69
57250;BME280;43102;52.014;-0.680;2023-01-16T00:14:00;98048;;;4.47;78.78
57250;BME280;43102;52.014;-0.680;2023-01-16T00:15:00;98048;;;4.47;78.78
57250;BME280;43102;52.014;-0.680;2023-01-16T00:16:00;98048;;;4.47;78.78
57250;BME280;43102;52.014;-0.680;2023-01-16T00:17:00;98048;;;4.47;78.78
57250;BME280;43102;52.014;-0.680;2023-01-16T00:18:00;98048;;;4.47;78.78
57250;BME280;43102;52.014;-0.680;2023-01-16T00:19:00;98034;;;4.49;78.80
57250;BME280;43102;52.014;-0.680;2023-01-16T00:20:00;98034;;;4.49;78.80
57250;BME280;43102;52.014;-0.680;2023-01-16T00:21:00;98034;;;4.49;78.80
57250;BME280;43102;52.014;-0.680;2023-01-16T00:22:00;98034;;;4.49;78.80
57250;BME280;43102;52.014;-0.680;2023-01-16T00:23:00;98034;;;4.49;78.80
57250;BME280;43102;52.014;-0.680;2023-01-16T00:24:00;98014;;;4.47;78.79
57250;BME280;43102;52.014;-0.680;2023-01-16T00:25:00;98014;;;4.47;78.79
57250;BME280;43102;52.014;-0.680;2023-01-16T00:26:03;98014;;;4.47;78.79
57250;BME280;43102;52.014;-0.680;2023-01-16T00:27:00;98014;;;4.47;78.79
57250;BME280;43102;52.014;-0.680;2023-01-16T00:28:00;98014;;;4.47;78.79
57250;BME280;43102;52.014;-0.680;2023-01-16T00:29:00;97997;;;4.42;78.73
57250;BME280;43102;52.014;-0.680;2023-01-16T00:30:00;97997;;;4.42;78.73
57250;BME280;43102;52.014;-0.680;2023-01-16T00:31:00;97997;;;4.42;78.73
57250;BME280;43102;52.014;-0.680;2023-01-16T00:32:00;97997;;;4.42;78.73
57250;BME280;43102;52.014;-0.680;2023-01-16T00:33:00;97997;;;4.42;78.73
57250;BME280;43102;52.014;-0.680;2023-01-16T00:34:00;97984;;;4.40;78.81
57250;BME280;43102;52.014;-0.680;2023-01-16T00:35:00;97984;;;4.40;78.81
57250;BME280;43102;52.014;-0.680;2023-01-16T00:36:00;97984;;;4.40;78.81
57250;BME280;43102;52.014;-0.680;2023-01-16T00:37:00;97984;;;4.40;78.81
57250;BME280;43102;52.014;-0.680;2023-01-16T00:38:00;97984;;;4.40;78.81
57250;BME280;43102;52.014;-0.680;2023-01-16T00:39:00;97973;;;4.34;78.85
57250;BME280;43102;52.014;-0.680;2023-01-16T00:40:00;97973;;;4.34;78.85
57250;BME280;43102;52.014;-0.680;2023-01-16T00:41:00;97973;;;4.34;78.85
57250;BME280;43102;52.014;-0.680;2023-01-16T00:42:00;97973;;;4.34;78.85
57250;BME280;43102;52.014;-0.680;2023-01-16T00:43:00;97973;;;4.34;78.85
57250;BME280;43102;52.014;-0.680;2023-01-16T00:44:00;97962;;;4.28;78.83
57250;BME280;43102;52.014;-0.680;2023-01-16T00:45:00;97962;;;4.28;78.83
57250;BME280;43102;52.014;-0.680;2023-01-16T00:46:00;97962;;;4.28;78.83
57250;BME280;43102;52.014;-0.680;2023-01-16T00:47:00;97962;;;4.28;78.83
57250;BME280;43102;52.014;-0.680;2023-01-16T00:48:00;97962;;;4.28;78.83
57250;BME280;43102;52.014;-0.680;2023-01-16T00:49:00;97952;;;4.20;78.82
57250;BME280;43102;52.014;-0.680;2023-01-16T00:50:00;97952;;;4.20;78.82
57250;BME280;43102;52.014;-0.680;2023-01-16T00:51:00;97952;;;4.20;78.82
57250;BME280;43102;52.014;-0.680;2023-01-16T00:52:00;97952;;;4.20;78.82
57250;BME280;43102;52.014;-0.680;2023-01-16T00:53:00;97952;;;4.20;78.82
57250;BME280;43102;52.014;-0.680;2023-01-16T00:54:00;97934;;;4.19;78.96
57250;BME280;43102;52.014;-0.680;2023-01-16T00:55:00;97934;;;4.19;78.96
57250;BME280;43102;52.014;-0.680;2023-01-16T00:56:00;97934;;;4.19;78.96
57250;BME280;43102;52.014;-0.680;2023-01-16T00:57:00;97934;;;4.19;78.96
57250;BME280;43102;52.014;-0.680;2023-01-16T00:58:00;97934;;;4.19;78.96
57250;BME280;43102;52.014;-0.680;2023-01-16T00:59:00;97914;;;4.22;79.21
57250;BME280;43102;52.014;-0.680;2023-01-16T01:00:00;97914;;;4.22;79.21
57250;BME280;43102;52.014;-0.680;2023-01-16T01:01:00;97914;;;4.22;79.21
57250;BME280;43102;52.014;-0.680;2023-01-16T01:02:00;97914;;;4.22;79.21
57250;BME280;43102;52.014;-0.680;2023-01-16T01:03:00;97914;;;4.22;79.21
57250;BME280;43102;52.014;-0.680;2023-01-16T01:04:00;97900;;;4.27;79.29
57250;BME280;43102;52.014;-0.680;2023-01-16T01:05:00;97900;;;4.27;79.29
57250;BME280;43102;52.014;-0.680;2023-01-16T01:06:04;97900;;;4.27;79.29
57250;BME280;43102;52.014;-0.680;2023-01-16T01:07:00;97900;;;4.27;79.29
57250;BME280;43102;52.014;-0.680;2023-01-16T01:08:00;97900;;;4.27;79.29
57250;BME280;43102;52.014;-0.680;2023-01-16T01:09:00;97890;;;4.23;79.33
57250;BME280;43102;52.014;-0.680;2023-01-16T01:10:00;97890;;;4.23;79.33
57250;BME280;43102;52.014;-0.680;2023-01-16T01:12:00;97890;;;4.23;79.33
57250;BME280;43102;52.014;-0.680;2023-01-16T01:13:00;97890;;;4.23;79.33
57250;BME280;43102;52.014;-0.680;2023-01-16T01:14:00;97877;;;4.12;79.48
57250;BME280;43102;52.014;-0.680;2023-01-16T01:15:00;97877;;;4.12;79.48
57250;BME280;43102;52.014;-0.680;2023-01-16T01:16:00;97877;;;4.12;79.48
57250;BME280;43102;52.014;-0.680;2023-01-16T01:17:00;97877;;;4.12;79.48
57250;BME280;43102;52.014;-0.680;2023-01-16T01:18:00;97877;;;4.12;79.48
57250;BME280;43102;52.014;-0.680;2023-01-16T01:19:00;97860;;;4.08;79.47
57250;BME280;43102;52.014;-0.680;2023-01-16T01:20:00;97860;;;4.08;79.47
57250;BME280;43102;52.014;-0.680;2023-01-16T01:21:00;97860;;;4.08;79.47
57250;BME280;43102;52.014;-0.680;2023-01-16T01:22:00;97860;;;4.08;79.47
57250;BME280;43102;52.014;-0.680;2023-01-16T01:23:00;97860;;;4.08;79.47
57250;BME280;43102;52.014;-0.680;2023-01-16T01:24:00;97843;;;4.02;79.58
57250;BME280;43102;52.014;-0.680;2023-01-16T01:25:00;97843;;;4.02;79.58
57250;BME280;43102;52.014;-0.680;2023-01-16T01:26:08;97843;;;4.02;79.58
57250;BME280;43102;52.014;-0.680;2023-01-16T01:27:00;97843;;;4.02;79.58
57250;BME280;43102;52.014;-0.680;2023-01-16T01:28:00;97843;;;4.02;79.58
57250;BME280;43102;52.014;-0.680;2023-01-16T01:29:00;97835;;;4.00;79.71
57250;BME280;43102;52.014;-0.680;2023-01-16T01:30:00;97835;;;4.00;79.71
57250;BME280;43102;52.014;-0.680;2023-01-16T01:31:02;97835;;;4.00;79.71
57250;BME280;43102;52.014;-0.680;2023-01-16T01:32:00;97835;;;4.00;79.71
57250;BME280;43102;52.014;-0.680;2023-01-16T01:33:00;97835;;;4.00;79.71
57250;BME280;43102;52.014;-0.680;2023-01-16T01:34:00;97829;;;3.95;79.68
57250;BME280;43102;52.014;-0.680;2023-01-16T01:35:00;97829;;;3.95;79.68
57250;BME280;43102;52.014;-0.680;2023-01-16T01:36:00;97829;;;3.95;79.68
57250;BME280;43102;52.014;-0.680;2023-01-16T01:37:01;97829;;;3.95;79.68
57250;BME280;43102;52.014;-0.680;2023-01-16T01:38:00;97829;;;3.95;79.68
57250;BME280;43102;52.014;-0.680;2023-01-16T01:39:00;97815;;;3.82;80.30
57250;BME280;43102;52.014;-0.680;2023-01-16T01:40:00;97815;;;3.82;80.30
57250;BME280;43102;52.014;-0.680;2023-01-16T01:41:00;97815;;;3.82;80.30
57250;BME280;43102;52.014;-0.680;2023-01-16T01:42:00;97815;;;3.82;80.30
57250;BME280;43102;52.014;-0.680;2023-01-16T01:43:00;97815;;;3.82;80.30
57250;BME280;43102;52.014;-0.680;2023-01-16T01:44:00;97803;;;3.86;80.35
57250;BME280;43102;52.014;-0.680;2023-01-16T01:45:00;97803;;;3.86;80.35
57250;BME280;43102;52.014;-0.680;2023-01-16T01:46:00;97803;;;3.86;80.35
57250;BME280;43102;52.014;-0.680;2023-01-16T01:47:00;97803;;;3.86;80.35
57250;BME280;43102;52.014;-0.680;2023-01-16T01:48:02;97803;;;3.86;80.35
57250;BME280;43102;52.014;-0.680;2023-01-16T01:49:02;97788;;;3.86;80.43
57250;BME280;43102;52.014;-0.680;2023-01-16T01:50:01;97788;;;3.86;80.43
57250;BME280;43102;52.014;-0.680;2023-01-16T01:51:01;97788;;;3.86;80.43
57250;BME280;43102;52.014;-0.680;2023-01-16T01:52:00;97788;;;3.86;80.43
57250;BME280;43102;52.014;-0.680;2023-01-16T01:53:00;97788;;;3.86;80.43
57250;BME280;43102;52.014;-0.680;2023-01-16T01:54:02;97780;;;3.81;80.78
57250;BME280;43102;52.014;-0.680;2023-01-16T01:55:02;97780;;;3.81;80.78
57250;BME280;43102;52.014;-0.680;2023-01-16T01:56:05;97780;;;3.81;80.78
57250;BME280;43102;52.014;-0.680;2023-01-16T01:57:09;97780;;;3.81;80.78
57250;BME280;43102;52.014;-0.680;2023-01-16T01:58:00;97780;;;3.81;80.78
57250;BME280;43102;52.014;-0.680;2023-01-16T01:59:02;97781;;;3.84;80.87
57250;BME280;43102;52.014;-0.680;2023-01-16T02:00:04;97781;;;3.84;80.87
57250;BME280;43102;52.014;-0.680;2023-01-16T02:01:00;97781;;;3.84;80.87
57250;BME280;43102;52.014;-0.680;2023-01-16T02:02:00;97781;;;3.84;80.87
57250;BME280;43102;52.014;-0.680;2023-01-16T02:03:05;97781;;;3.84;80.87
57250;BME280;43102;52.014;-0.680;2023-01-16T02:04:00;97773;;;3.88;80.93
57250;BME280;43102;52.014;-0.680;2023-01-16T02:05:00;97773;;;3.88;80.93
57250;BME280;43102;52.014;-0.680;2023-01-16T02:06:00;97773;;;3.88;80.93
57250;BME280;43102;52.014;-0.680;2023-01-16T02:07:01;97773;;;3.88;80.93
57250;BME280;43102;52.014;-0.680;2023-01-16T02:08:00;97773;;;3.88;80.93
57250;BME280;43102;52.014;-0.680;2023-01-16T02:09:00;97758;;;3.86;81.14
57250;BME280;43102;52.014;-0.680;2023-01-16T02:10:04;97758;;;3.86;81.14
57250;BME280;43102;52.014;-0.680;2023-01-16T02:11:05;97758;;;3.86;81.14
57250;BME280;43102;52.014;-0.680;2023-01-16T02:12:00;97758;;;3.86;81.14
57250;BME280;43102;52.014;-0.680;2023-01-16T02:13:00;97758;;;3.86;81.14
57250;BME280;43102;52.014;-0.680;2023-01-16T02:14:01;97749;;;3.77;81.43
57250;BME280;43102;52.014;-0.680;2023-01-16T02:15:00;97749;;;3.77;81.43
57250;BME280;43102;52.014;-0.680;2023-01-16T02:16:00;97749;;;3.77;81.43
57250;BME280;43102;52.014;-0.680;2023-01-16T02:17:03;97749;;;3.77;81.43
57250;BME280;43102;52.014;-0.680;2023-01-16T02:18:00;97749;;;3.77;81.43
57250;BME280;43102;52.014;-0.680;2023-01-16T02:19:00;97738;;;3.84;81.41
57250;BME280;43102;52.014;-0.680;2023-01-16T02:22:06;97738;;;3.84;81.41
57250;BME280;43102;52.014;-0.680;2023-01-16T02:27:04;97738;;;3.92;81.26
57250;BME280;43102;52.014;-0.680;2023-01-16T02:35:06;97711;;;3.94;81.34
57250;BME280;43102;52.014;-0.680;2023-01-16T02:36:05;97711;;;3.94;81.34
57250;BME280;43102;52.014;-0.680;2023-01-16T02:38:03;97711;;;3.94;81.34
57250;BME280;43102;52.014;-0.680;2023-01-16T02:40:11;97694;;;3.85;81.60
57250;BME280;43102;52.014;-0.680;2023-01-16T02:41:18;97694;;;3.85;81.60
57250;BME280;43102;52.014;-0.680;2023-01-16T02:43:04;97694;;;3.85;81.60
57250;BME280;43102;52.014;-0.680;2023-01-16T02:44:05;97679;;;3.82;81.68
57250;BME280;43102;52.014;-0.680;2023-01-16T02:47:05;97679;;;3.82;81.68
57250;BME280;43102;52.014;-0.680;2023-01-16T02:50:01;97674;;;3.84;81.70
57250;BME280;43102;52.014;-0.680;2023-01-16T02:51:03;97674;;;3.84;81.70
57250;BME280;43102;52.014;-0.680;2023-01-16T02:53:01;97674;;;3.84;81.70
57250;BME280;43102;52.014;-0.680;2023-01-16T02:54:05;97667;;;3.78;81.92
57250;BME280;43102;52.014;-0.680;2023-01-16T02:55:02;97667;;;3.78;81.92
57250;BME280;43102;52.014;-0.680;2023-01-16T02:56:02;97667;;;3.78;81.92
57250;BME280;43102;52.014;-0.680;2023-01-16T02:57:05;97667;;;3.78;81.92
57250;BME280;43102;52.014;-0.680;2023-01-16T02:58:01;97667;;;3.78;81.92
57250;BME280;43102;52.014;-0.680;2023-01-16T02:59:00;97652;;;3.86;81.85
57250;BME280;43102;52.014;-0.680;2023-01-16T03:00:00;97652;;;3.86;81.85
57250;BME280;43102;52.014;-0.680;2023-01-16T03:01:00;97652;;;3.86;81.85
57250;BME280;43102;52.014;-0.680;2023-01-16T03:02:00;97652;;;3.86;81.85
57250;BME280;43102;52.014;-0.680;2023-01-16T03:03:00;97652;;;3.86;81.85
57250;BME280;43102;52.014;-0.680;2023-01-16T03:05:00;97636;;;3.81;81.91
57250;BME280;43102;52.014;-0.680;2023-01-16T03:06:03;97636;;;3.81;81.91
57250;BME280;43102;52.014;-0.680;2023-01-16T03:12:05;97630;;;3.78;82.09
57250;BME280;43102;52.014;-0.680;2023-01-16T03:17:08;97618;;;3.80;81.98
57250;BME280;43102;52.014;-0.680;2023-01-16T03:20:18;97613;;;3.79;82.07
57250;BME280;43102;52.014;-0.680;2023-01-16T03:21:04;97613;;;3.79;82.07
57250;BME280;43102;52.014;-0.680;2023-01-16T03:22:17;97613;;;3.79;82.07
57250;BME280;43102;52.014;-0.680;2023-01-16T03:23:05;97613;;;3.79;82.07
57250;BME280;43102;52.014;-0.680;2023-01-16T03:24:06;97614;;;3.76;82.08
57250;BME280;43102;52.014;-0.680;2023-01-16T03:25:04;97614;;;3.76;82.08
57250;BME280;43102;52.014;-0.680;2023-01-16T03:26:01;97614;;;3.76;82.08
57250;BME280;43102;52.014;-0.680;2023-01-16T03:27:07;97614;;;3.76;82.08
57250;BME280;43102;52.014;-0.680;2023-01-16T03:29:03;97606;;;3.70;82.42
57250;BME280;43102;52.014;-0.680;2023-01-16T03:36:04;97598;;;3.72;82.39
57250;BME280;43102;52.014;-0.680;2023-01-16T03:38:01;97598;;;3.72;82.39
57250;BME280;43102;52.014;-0.680;2023-01-16T03:39:00;97592;;;3.77;82.33
57250;BME280;43102;52.014;-0.680;2023-01-16T03:40:01;97592;;;3.77;82.33
57250;BME280;43102;52.014;-0.680;2023-01-16T03:41:00;97592;;;3.77;82.33
57250;BME280;43102;52.014;-0.680;2023-01-16T03:42:01;97592;;;3.77;82.33
57250;BME280;43102;52.014;-0.680;2023-01-16T03:44:01;97589;;;3.70;82.48
57250;BME280;43102;52.014;-0.680;2023-01-16T03:45:02;97589;;;3.70;82.48
57250;BME280;43102;52.014;-0.680;2023-01-16T03:46:01;97589;;;3.70;82.48
57250;BME280;43102;52.014;-0.680;2023-01-16T03:47:00;97589;;;3.70;82.48
57250;BME280;43102;52.014;-0.680;2023-01-16T03:48:02;97589;;;3.70;82.48
57250;BME280;43102;52.014;-0.680;2023-01-16T03:49:02;97579;;;3.78;82.36
57250;BME280;43102;52.014;-0.680;2023-01-16T03:50:01;97579;;;3.78;82.36
57250;BME280;43102;52.014;-0.680;2023-01-16T03:51:01;97579;;;3.78;82.36
57250;BME280;43102;52.014;-0.680;2023-01-16T03:52:00;97579;;;3.78;82.36
57250;BME280;43102;52.014;-0.680;2023-01-16T03:53:02;97579;;;3.78;82.36
57250;BME280;43102;52.014;-0.680;2023-01-16T03:54:01;97566;;;3.74;82.32
57250;BME280;43102;52.014;-0.680;2023-01-16T03:55:04;97566;;;3.74;82.32
57250;BME280;43102;52.014;-0.680;2023-01-16T03:58:02;97566;;;3.74;82.32
57250;BME280;43102;52.014;-0.680;2023-01-16T03:59:00;97564;;;3.71;82.30
57250;BME280;43102;52.014;-0.680;2023-01-16T04:00:00;97564;;;3.71;82.30
57250;BME280;43102;52.014;-0.680;2023-01-16T04:03:04;97564;;;3.71;82.30
57250;BME280;43102;52.014;-0.680;2023-01-16T04:04:02;97563;;;3.69;82.29
57250;BME280;43102;52.014;-0.680;2023-01-16T04:06:04;97563;;;3.69;82.29
57250;BME280;43102;52.014;-0.680;2023-01-16T04:07:03;97563;;;3.69;82.29
57250;BME280;43102;52.014;-0.680;2023-01-16T04:09:01;97562;;;3.64;82.50
57250;BME280;43102;52.014;-0.680;2023-01-16T04:10:10;97562;;;3.64;82.50
57250;BME280;43102;52.014;-0.680;2023-01-16T04:11:00;97562;;;3.64;82.50
57250;BME280;43102;52.014;-0.680;2023-01-16T04:12:00;97562;;;3.64;82.50
57250;BME280;43102;52.014;-0.680;2023-01-16T04:13:01;97562;;;3.64;82.50
57250;BME280;43102;52.014;-0.680;2023-01-16T04:14:00;97553;;;3.68;82.46
57250;BME280;43102;52.014;-0.680;2023-01-16T04:15:03;97553;;;3.68;82.46
57250;BME280;43102;52.014;-0.680;2023-01-16T04:16:00;97553;;;3.68;82.46
57250;BME280;43102;52.014;-0.680;2023-01-16T04:17:00;97553;;;3.68;82.46
57250;BME280;43102;52.014;-0.680;2023-01-16T04:18:00;97553;;;3.68;82.46
57250;BME280;43102;52.014;-0.680;2023-01-16T04:19:00;97547;;;3.72;82.40
57250;BME280;43102;52.014;-0.680;2023-01-16T04:20:00;97547;;;3.72;82.40
57250;BME280;43102;52.014;-0.680;2023-01-16T04:21:00;97547;;;3.72;82.40
57250;BME280;43102;52.014;-0.680;2023-01-16T04:22:04;97547;;;3.72;82.40
57250;BME280;43102;52.014;-0.680;2023-01-16T04:23:00;97547;;;3.72;82.40
57250;BME280;43102;52.014;-0.680;2023-01-16T04:24:00;97547;;;3.76;82.40
57250;BME280;43102;52.014;-0.680;2023-01-16T04:25:00;97547;;;3.76;82.40
57250;BME280;43102;52.014;-0.680;2023-01-16T04:26:00;97547;;;3.76;82.40
57250;BME280;43102;52.014;-0.680;2023-01-16T04:27:00;97547;;;3.76;82.40
57250;BME280;43102;52.014;-0.680;2023-01-16T04:28:00;97547;;;3.76;82.40
57250;BME280;43102;52.014;-0.680;2023-01-16T04:29:00;97541;;;3.74;82.53
57250;BME280;43102;52.014;-0.680;2023-01-16T04:30:00;97541;;;3.74;82.53
57250;BME280;43102;52.014;-0.680;2023-01-16T04:31:00;97541;;;3.74;82.53
57250;BME280;43102;52.014;-0.680;2023-01-16T04:32:00;97541;;;3.74;82.53
57250;BME280;43102;52.014;-0.680;2023-01-16T04:33:00;97541;;;3.74;82.53
57250;BME280;43102;52.014;-0.680;2023-01-16T04:34:00;97538;;;3.76;82.54
57250;BME280;43102;52.014;-0.680;2023-01-16T04:35:00;97538;;;3.76;82.54
57250;BME280;43102;52.014;-0.680;2023-01-16T04:36:00;97538;;;3.76;82.54
57250;BME280;43102;52.014;-0.680;2023-01-16T04:37:00;97538;;;3.76;82.54
57250;BME280;43102;52.014;-0.680;2023-01-16T04:38:00;97538;;;3.76;82.54
57250;BME280;43102;52.014;-0.680;2023-01-16T04:39:00;97543;;;3.65;83.10
57250;BME280;43102;52.014;-0.680;2023-01-16T04:40:00;97543;;;3.65;83.10
57250;BME280;43102;52.014;-0.680;2023-01-16T04:41:00;97543;;;3.65;83.10
57250;BME280;43102;52.014;-0.680;2023-01-16T04:42:00;97543;;;3.65;83.10
57250;BME280;43102;52.014;-0.680;2023-01-16T04:43:00;97543;;;3.65;83.10
57250;BME280;43102;52.014;-0.680;2023-01-16T04:44:00;97535;;;3.75;82.84
57250;BME280;43102;52.014;-0.680;2023-01-16T04:45:00;97535;;;3.75;82.84
57250;BME280;43102;52.014;-0.680;2023-01-16T04:46:00;97535;;;3.75;82.84
57250;BME280;43102;52.014;-0.680;2023-01-16T04:47:00;97535;;;3.75;82.84
57250;BME280;43102;52.014;-0.680;2023-01-16T04:48:00;97535;;;3.75;82.84
57250;BME280;43102;52.014;-0.680;2023-01-16T04:49:00;97530;;;3.72;82.97
57250;BME280;43102;52.014;-0.680;2023-01-16T04:50:00;97530;;;3.72;82.97
57250;BME280;43102;52.014;-0.680;2023-01-16T04:51:00;97530;;;3.72;82.97
57250;BME280;43102;52.014;-0.680;2023-01-16T04:52:00;97530;;;3.72;82.97
57250;BME280;43102;52.014;-0.680;2023-01-16T04:53:00;97530;;;3.72;82.97
57250;BME280;43102;52.014;-0.680;2023-01-16T04:54:00;97528;;;3.74;82.75
57250;BME280;43102;52.014;-0.680;2023-01-16T04:55:00;97528;;;3.74;82.75
57250;BME280;43102;52.014;-0.680;2023-01-16T04:56:00;97528;;;3.74;82.75
57250;BME280;43102;52.014;-0.680;2023-01-16T04:57:00;97528;;;3.74;82.75
57250;BME280;43102;52.014;-0.680;2023-01-16T04:58:00;97528;;;3.74;82.75
57250;BME280;43102;52.014;-0.680;2023-01-16T04:59:00;97527;;;3.65;83.26
57250;BME280;43102;52.014;-0.680;2023-01-16T05:00:00;97527;;;3.65;83.26
57250;BME280;43102;52.014;-0.680;2023-01-16T05:01:00;97527;;;3.65;83.26
57250;BME280;43102;52.014;-0.680;2023-01-16T05:02:00;97527;;;3.65;83.26
57250;BME280;43102;52.014;-0.680;2023-01-16T05:03:00;97527;;;3.65;83.26
57250;BME280;43102;52.014;-0.680;2023-01-16T05:04:00;97527;;;3.69;82.99
57250;BME280;43102;52.014;-0.680;2023-01-16T05:05:00;97527;;;3.69;82.99
57250;BME280;43102;52.014;-0.680;2023-01-16T05:06:00;97527;;;3.69;82.99
57250;BME280;43102;52.014;-0.680;2023-01-16T05:07:00;97527;;;3.69;82.99
57250;BME280;43102;52.014;-0.680;2023-01-16T05:08:00;97527;;;3.69;82.99
57250;BME280;43102;52.014;-0.680;2023-01-16T05:09:00;97529;;;3.70;83.00
57250;BME280;43102;52.014;-0.680;2023-01-16T05:10:00;97529;;;3.70;83.00
57250;BME280;43102;52.014;-0.680;2023-01-16T05:11:00;97529;;;3.70;83.00
57250;BME280;43102;52.014;-0.680;2023-01-16T05:12:00;97529;;;3.70;83.00
57250;BME280;43102;52.014;-0.680;2023-01-16T05:13:00;97529;;;3.70;83.00
57250;BME280;43102;52.014;-0.680;2023-01-16T05:14:00;97521;;;3.62;83.42
57250;BME280;43102;52.014;-0.680;2023-01-16T05:15:00;97521;;;3.62;83.42
57250;BME280;43102;52.014;-0.680;2023-01-16T05:16:00;97521;;;3.62;83.42
57250;BME280;43102;52.014;-0.680;2023-01-16T05:17:00;97521;;;3.62;83.42
57250;BME280;43102;52.014;-0.680;2023-01-16T05:18:00;97521;;;3.62;83.42
57250;BME280;43102;52.014;-0.680;2023-01-16T05:19:00;97519;;;3.67;83.09
57250;BME280;43102;52.014;-0.680;2023-01-16T05:20:00;97519;;;3.67;83.09
57250;BME280;43102;52.014;-0.680;2023-01-16T05:21:00;97519;;;3.67;83.09
57250;BME280;43102;52.014;-0.680;2023-01-16T05:22:00;97519;;;3.67;83.09
57250;BME280;43102;52.014;-0.680;2023-01-16T05:23:00;97519;;;3.67;83.09
57250;BME280;43102;52.014;-0.680;2023-01-16T05:24:00;97523;;;3.48;83.24
57250;BME280;43102;52.014;-0.680;2023-01-16T05:25:00;97523;;;3.48;83.24
57250;BME280;43102;52.014;-0.680;2023-01-16T05:26:00;97523;;;3.48;83.24
57250;BME280;43102;52.014;-0.680;2023-01-16T05:27:00;97523;;;3.48;83.24
57250;BME280;43102;52.014;-0.680;2023-01-16T05:28:00;97523;;;3.48;83.24
57250;BME280;43102;52.014;-0.680;2023-01-16T05:29:00;97529;;;3.35;83.22
57250;BME280;43102;52.014;-0.680;2023-01-16T05:30:00;97529;;;3.35;83.22
57250;BME280;43102;52.014;-0.680;2023-01-16T05:31:00;97529;;;3.35;83.22
57250;BME280;43102;52.014;-0.680;2023-01-16T05:32:00;97529;;;3.35;83.22
57250;BME280;43102;52.014;-0.680;2023-01-16T05:33:00;97529;;;3.35;83.22
57250;BME280;43102;52.014;-0.680;2023-01-16T05:34:00;97530;;;3.17;83.86
57250;BME280;43102;52.014;-0.680;2023-01-16T05:35:00;97530;;;3.17;83.86
57250;BME280;43102;52.014;-0.680;2023-01-16T05:36:00;97530;;;3.17;83.86
57250;BME280;43102;52.014;-0.680;2023-01-16T05:37:00;97530;;;3.17;83.86
57250;BME280;43102;52.014;-0.680;2023-01-16T05:38:00;97530;;;3.17;83.86
57250;BME280;43102;52.014;-0.680;2023-01-16T05:39:00;97524;;;3.24;83.62
57250;BME280;43102;52.014;-0.680;2023-01-16T05:40:00;97524;;;3.24;83.62
57250;BME280;43102;52.014;-0.680;2023-01-16T05:41:00;97524;;;3.24;83.62
57250;BME280;43102;52.014;-0.680;2023-01-16T05:42:00;97524;;;3.24;83.62
57250;BME280;43102;52.014;-0.680;2023-01-16T05:43:00;97524;;;3.24;83.62
57250;BME280;43102;52.014;-0.680;2023-01-16T05:44:00;97529;;;3.19;83.63
57250;BME280;43102;52.014;-0.680;2023-01-16T05:45:00;97529;;;3.19;83.63
57250;BME280;43102;52.014;-0.680;2023-01-16T05:46:00;97529;;;3.19;83.63
57250;BME280;43102;52.014;-0.680;2023-01-16T05:47:00;97529;;;3.19;83.63
57250;BME280;43102;52.014;-0.680;2023-01-16T05:48:00;97529;;;3.19;83.63
57250;BME280;43102;52.014;-0.680;2023-01-16T05:49:00;97532;;;3.08;84.15
57250;BME280;43102;52.014;-0.680;2023-01-16T05:50:00;97532;;;3.08;84.15
57250;BME280;43102;52.014;-0.680;2023-01-16T05:51:00;97532;;;3.08;84.15
57250;BME280;43102;52.014;-0.680;2023-01-16T05:52:00;97532;;;3.08;84.15
57250;BME280;43102;52.014;-0.680;2023-01-16T05:53:00;97532;;;3.08;84.15
57250;BME280;43102;52.014;-0.680;2023-01-16T05:54:00;97530;;;3.17;84.08
57250;BME280;43102;52.014;-0.680;2023-01-16T05:55:00;97530;;;3.17;84.08
57250;BME280;43102;52.014;-0.680;2023-01-16T05:56:05;97530;;;3.17;84.08
57250;BME280;43102;52.014;-0.680;2023-01-16T05:57:00;97530;;;3.17;84.08
57250;BME280;43102;52.014;-0.680;2023-01-16T05:58:00;97530;;;3.17;84.08
57250;BME280;43102;52.014;-0.680;2023-01-16T05:59:00;97538;;;3.18;84.19
57250;BME280;43102;52.014;-0.680;2023-01-16T06:00:00;97538;;;3.18;84.19
57250;BME280;43102;52.014;-0.680;2023-01-16T06:01:00;97538;;;3.18;84.19
57250;BME280;43102;52.014;-0.680;2023-01-16T06:02:00;97538;;;3.18;84.19
57250;BME280;43102;52.014;-0.680;2023-01-16T06:03:00;97538;;;3.18;84.19
57250;BME280;43102;52.014;-0.680;2023-01-16T06:04:00;97538;;;3.13;84.36
57250;BME280;43102;52.014;-0.680;2023-01-16T06:05:00;97538;;;3.13;84.36
57250;BME280;43102;52.014;-0.680;2023-01-16T06:06:00;97538;;;3.13;84.36
57250;BME280;43102;52.014;-0.680;2023-01-16T06:07:00;97538;;;3.13;84.36
57250;BME280;43102;52.014;-0.680;2023-01-16T06:08:00;97538;;;3.13;84.36
57250;BME280;43102;52.014;-0.680;2023-01-16T06:09:00;97536;;;3.19;84.21
57250;BME280;43102;52.014;-0.680;2023-01-16T06:10:00;97536;;;3.19;84.21
57250;BME280;43102;52.014;-0.680;2023-01-16T06:11:00;97536;;;3.19;84.21
57250;BME280;43102;52.014;-0.680;2023-01-16T06:12:00;97536;;;3.19;84.21
57250;BME280;43102;52.014;-0.680;2023-01-16T06:13:00;97536;;;3.19;84.21
57250;BME280;43102;52.014;-0.680;2023-01-16T06:14:00;97536;;;3.28;84.04
57250;BME280;43102;52.014;-0.680;2023-01-16T06:15:00;97536;;;3.28;84.04
57250;BME280;43102;52.014;-0.680;2023-01-16T06:16:00;97536;;;3.28;84.04
57250;BME280;43102;52.014;-0.680;2023-01-16T06:17:00;97536;;;3.28;84.04
57250;BME280;43102;52.014;-0.680;2023-01-16T06:18:00;97536;;;3.28;84.04
57250;BME280;43102;52.014;-0.680;2023-01-16T06:19:00;97527;;;3.19;84.34